Time;durP1;ratioP1;P1;durP2;ratioP2;P2;SDS_P1;SDS_P2;PMS_P1;PMS_P2;Temp;Humidity;BMP_temperature;BMP_pressure;BME280_temperature;BME280_humidity;BME280_pressure;Samples;Min_cycle;Max_cycle;Signal;HPM_P1;HPM_P2
2023/04/11 04:00:36;;;;;;;0.10;0.10;;;8.60;99.90;;;;;;5765390;23;20560;-74
2023/04/11 04:03:03;;;;;;;0.82;0.30;;;8.50;99.90;;;;;;4907982;29;20707;-73
2023/04/11 04:05:29;;;;;;;0.30;0.30;;;8.50;99.90;;;;;;4914673;29;20202;-73
2023/04/11 04:07:56;;;;;;;2.55;0.32;;;8.40;99.90;;;;;;4918235;29;20214;-72
2023/04/11 04:10:23;;;;;;;0.10;0.10;;;8.40;99.90;;;;;;4926944;29;20700;-73
2023/04/11 04:12:49;;;;;;;0.77;0.77;;;8.40;99.90;;;;;;4909872;29;20213;-73
2023/04/11 04:15:16;;;;;;;0.35;0.35;;;8.40;99.90;;;;;;4925733;29;20647;-72
2023/04/11 04:17:44;;;;;;;0.25;0.25;;;8.30;99.90;;;;;;4918806;29;20211;-73
2023/04/11 04:20:12;;;;;;;0.20;0.20;;;8.40;99.90;;;;;;4949732;23;20214;-69
2023/04/11 04:22:38;;;;;;;0.50;0.50;;;8.40;99.90;;;;;;4873428;29;20239;-69
2023/04/11 04:25:06;;;;;;;0.52;0.52;;;8.30;99.90;;;;;;4878975;29;20230;-69
2023/04/11 04:27:33;;;;;;;0.30;0.30;;;8.30;99.90;;;;;;4885633;29;20208;-69
2023/04/11 04:29:59;;;;;;;0.73;0.73;;;8.30;99.90;;;;;;4874397;29;20218;-69
2023/04/11 04:32:29;;;;;;;0.30;0.30;;;8.30;99.90;;;;;;4873953;29;20224;-69
2023/04/11 04:34:58;;;;;;;1.52;0.40;;;8.30;99.90;;;;;;4876763;29;20267;-69
2023/04/11 04:37:26;;;;;;;0.47;0.40;;;8.30;99.90;;;;;;4885352;29;20545;-69
2023/04/11 04:39:54;;;;;;;1.25;0.85;;;8.30;99.90;;;;;;4881485;29;20220;-68
2023/04/11 04:42:22;;;;;;;0.20;0.20;;;8.30;99.90;;;;;;4878202;29;20236;-68
2023/04/11 04:44:49;;;;;;;0.50;0.50;;;8.20;99.90;;;;;;4884621;29;20596;-68
2023/04/11 04:47:17;;;;;;;1.13;0.60;;;8.20;99.90;;;;;;4884455;29;20298;-68
2023/04/11 04:49:44;;;;;;;0.35;0.30;;;8.20;99.90;;;;;;4876849;29;20223;-68
2023/04/11 04:52:12;;;;;;;0.40;0.40;;;8.30;99.90;;;;;;4882528;29;20284;-68
2023/04/11 04:54:39;;;;;;;3.25;0.70;;;8.30;99.90;;;;;;4876826;29;20208;-69
2023/04/11 04:57:07;;;;;;;0.32;0.32;;;8.30;99.90;;;;;;4876611;29;20208;-69
2023/04/11 04:59:33;;;;;;;0.22;0.22;;;8.30;99.90;;;;;;4884219;29;20378;-69
2023/04/11 05:02:00;;;;;;;0.20;0.20;;;8.30;99.90;;;;;;4877246;29;20689;-69
2023/04/11 05:04:28;;;;;;;0.45;0.45;;;8.30;99.90;;;;;;4884246;29;20220;-69
2023/04/11 05:06:55;;;;;;;4.45;1.17;;;8.30;99.90;;;;;;4873780;29;20215;-69
2023/04/11 05:09:23;;;;;;;0.50;0.50;;;8.30;99.90;;;;;;4883527;29;20262;-69
2023/04/11 05:11:50;;;;;;;0.47;0.47;;;8.30;99.90;;;;;;4883940;29;20229;-69
2023/04/11 05:14:17;;;;;;;0.50;0.50;;;8.30;99.90;;;;;;4884475;29;20256;-69
2023/04/11 05:16:45;;;;;;;0.30;0.30;;;8.30;99.90;;;;;;4881700;29;20220;-69
2023/04/11 05:19:11;;;;;;;1.45;0.30;;;8.30;99.90;;;;;;4877015;29;20673;-69
2023/04/11 05:21:38;;;;;;;0.65;0.65;;;8.30;99.90;;;;;;4880410;29;20250;-69
2023/04/11 05:24:05;;;;;;;0.93;0.93;;;8.30;99.90;;;;;;4882291;29;20581;-69
2023/04/11 05:26:33;;;;;;;0.30;0.30;;;8.30;99.90;;;;;;4878697;29;20212;-69
2023/04/11 05:29:00;;;;;;;0.30;0.30;;;8.30;99.90;;;;;;4880582;29;20538;-69
2023/04/11 05:31:27;;;;;;;0.77;0.30;;;8.30;99.90;;;;;;4883951;29;20224;-69
2023/04/11 05:33:54;;;;;;;5.47;0.60;;;8.40;99.90;;;;;;4874496;29;20204;-68
2023/04/11 05:36:21;;;;;;;0.20;0.20;;;8.40;99.90;;;;;;4880963;29;20588;-68
2023/04/11 05:38:47;;;;;;;0.47;0.47;;;8.40;99.90;;;;;;4879109;29;20207;-68
2023/04/11 05:41:14;;;;;;;0.85;0.50;;;8.40;99.90;;;;;;4891886;29;20235;-69
2023/04/11 05:43:42;;;;;;;0.32;0.32;;;8.40;99.90;;;;;;4884574;29;20268;-69
2023/04/11 05:46:09;;;;;;;0.30;0.30;;;8.50;99.90;;;;;;4881621;29;20219;-69
2023/04/11 05:48:37;;;;;;;1.85;0.40;;;8.70;99.90;;;;;;4879470;29;20216;-68
2023/04/11 05:51:04;;;;;;;0.40;0.40;;;8.80;99.90;;;;;;4888731;29;20231;-68
2023/04/11 05:53:31;;;;;;;0.20;0.20;;;8.90;99.90;;;;;;4876935;29;20208;-69
2023/04/11 05:55:58;;;;;;;0.65;0.63;;;8.90;99.90;;;;;;4882727;29;20207;-69
2023/04/11 05:58:25;;;;;;;0.20;0.20;;;8.90;99.90;;;;;;4882623;29;20208;-69
2023/04/11 06:00:53;;;;;;;0.20;0.20;;;8.80;99.90;;;;;;4884910;29;20595;-69
2023/04/11 06:03:20;;;;;;;0.55;0.55;;;8.80;99.90;;;;;;4881562;29;20234;-69
2023/04/11 06:05:47;;;;;;;0.30;0.30;;;8.80;99.90;;;;;;4882932;29;20210;-69
2023/04/11 06:08:14;;;;;;;0.80;0.80;;;8.90;99.90;;;;;;4879117;29;20208;-69
2023/04/11 06:10:40;;;;;;;0.77;0.77;;;9.10;99.90;;;;;;4878209;29;20235;-68
2023/04/11 06:13:07;;;;;;;0.40;0.40;;;9.10;99.90;;;;;;4880745;29;20210;-70
2023/04/11 06:15:34;;;;;;;0.30;0.30;;;9.20;99.90;;;;;;4869120;29;20216;-69
2023/04/11 06:18:02;;;;;;;0.25;0.25;;;9.10;99.90;;;;;;4880396;29;20212;-69
2023/04/11 06:20:29;;;;;;;1.95;1.05;;;9.10;99.90;;;;;;4888852;29;20236;-69
2023/04/11 06:22:56;;;;;;;0.47;0.45;;;9.10;99.90;;;;;;4881723;29;20255;-69
2023/04/11 06:25:23;;;;;;;0.45;0.45;;;9.10;99.90;;;;;;4874897;29;20212;-69
2023/04/11 06:27:50;;;;;;;3.40;0.63;;;9.20;99.90;;;;;;4879481;29;20878;-69
2023/04/11 06:30:16;;;;;;;0.50;0.50;;;9.30;99.90;;;;;;4882304;29;20219;-69
2023/04/11 06:32:43;;;;;;;0.50;0.50;;;9.30;99.90;;;;;;4881809;29;20216;-70
2023/04/11 06:35:11;;;;;;;1.30;0.90;;;9.30;99.90;;;;;;4878718;29;20331;-70
2023/04/11 06:37:38;;;;;;;0.45;0.45;;;9.20;99.90;;;;;;4881742;29;20231;-69
2023/04/11 06:40:06;;;;;;;0.73;0.73;;;9.10;99.90;;;;;;4885904;29;20204;-69
2023/04/11 06:42:33;;;;;;;2.85;2.17;;;9.10;99.90;;;;;;4878374;29;20580;-69
2023/04/11 06:45:00;;;;;;;11.88;3.70;;;9.10;99.90;;;;;;4878476;29;20204;-69
2023/04/11 06:47:27;;;;;;;1.00;1.00;;;9.10;99.90;;;;;;4879526;29;20215;-68
2023/04/11 06:49:54;;;;;;;7.70;3.50;;;9.00;99.90;;;;;;4886039;29;20216;-70
2023/04/11 06:52:22;;;;;;;2.17;1.58;;;9.10;99.90;;;;;;4879181;29;20220;-69
2023/04/11 06:54:49;;;;;;;2.33;1.40;;;9.20;99.90;;;;;;4877966;29;20212;-69
2023/04/11 06:57:16;;;;;;;1.38;1.25;;;9.30;99.90;;;;;;4884594;29;20211;-70
2023/04/11 06:59:43;;;;;;;0.52;0.52;;;9.50;99.90;;;;;;4877838;29;20248;-68
2023/04/11 07:02:10;;;;;;;0.95;0.95;;;9.60;99.90;;;;;;4879089;29;20314;-68
2023/04/11 07:04:36;;;;;;;6.18;1.40;;;9.70;99.90;;;;;;4879850;29;20219;-69
2023/04/11 07:07:04;;;;;;;1.33;1.23;;;9.70;99.90;;;;;;4878643;29;20218;-68
2023/04/11 07:09:32;;;;;;;0.90;0.90;;;9.70;99.90;;;;;;4884688;29;20208;-69
2023/04/11 07:12:00;;;;;;;1.35;1.30;;;9.80;99.90;;;;;;4878736;29;20238;-69
2023/04/11 07:14:26;;;;;;;1.00;1.00;;;9.80;99.90;;;;;;4885861;29;20217;-69
2023/04/11 07:16:53;;;;;;;0.73;0.68;;;9.80;99.90;;;;;;4873684;29;20508;-69
2023/04/11 07:19:20;;;;;;;0.50;0.50;;;9.90;99.90;;;;;;4882081;29;20216;-69
2023/04/11 07:21:47;;;;;;;0.80;0.75;;;9.90;99.90;;;;;;4876019;29;20237;-71
2023/04/11 07:24:17;;;;;;;0.43;0.43;;;9.90;99.90;;;;;;4879335;29;20236;-70
2023/04/11 07:26:45;;;;;;;0.60;0.60;;;9.90;99.90;;;;;;4880805;29;20235;-70
2023/04/11 07:29:12;;;;;;;0.40;0.40;;;9.80;99.90;;;;;;4877601;29;20219;-70
2023/04/11 07:31:39;;;;;;;0.30;0.30;;;9.90;99.90;;;;;;4878692;29;20685;-70
2023/04/11 07:34:06;;;;;;;1.30;0.88;;;9.80;99.90;;;;;;4878512;29;20211;-68
2023/04/11 07:36:33;;;;;;;0.35;0.35;;;9.70;99.90;;;;;;4880289;29;20210;-70
2023/04/11 07:39:00;;;;;;;0.55;0.55;;;9.60;99.90;;;;;;4885502;29;20212;-69
2023/04/11 07:41:27;;;;;;;0.35;0.35;;;9.50;99.90;;;;;;4877455;29;20313;-69
2023/04/11 07:43:55;;;;;;;0.30;0.30;;;9.40;99.90;;;;;;4887583;29;20241;-68
2023/04/11 07:46:21;;;;;;;0.55;0.55;;;9.30;99.90;;;;;;4885754;29;20212;-69
2023/04/11 07:48:48;;;;;;;0.30;0.30;;;9.40;99.90;;;;;;4880463;29;20499;-68
2023/04/11 07:51:16;;;;;;;0.70;0.70;;;9.30;99.90;;;;;;4887126;29;20232;-69
2023/04/11 07:53:42;;;;;;;0.28;0.28;;;9.30;99.90;;;;;;4873521;29;20529;-68
2023/04/11 07:56:10;;;;;;;0.43;0.43;;;9.50;99.90;;;;;;4878906;29;20215;-68
2023/04/11 07:58:36;;;;;;;0.35;0.35;;;9.80;99.90;;;;;;4885046;29;20211;-68
2023/04/11 08:01:05;;;;;;;0.85;0.85;;;9.90;99.90;;;;;;4875687;29;20234;-69
2023/04/11 08:03:32;;;;;;;1.42;1.33;;;10.00;99.90;;;;;;4877832;29;20238;-69
2023/04/11 08:05:59;;;;;;;1.52;1.48;;;10.10;99.90;;;;;;4877131;29;20212;-69
2023/04/11 08:08:26;;;;;;;1.00;1.00;;;10.20;99.90;;;;;;4883724;29;20219;-68
2023/04/11 08:10:52;;;;;;;0.57;0.57;;;10.40;99.90;;;;;;4877907;29;20228;-69
2023/04/11 08:13:19;;;;;;;0.85;0.85;;;10.40;99.90;;;;;;4871631;29;20204;-71
2023/04/11 08:15:46;;;;;;;1.13;1.13;;;10.50;99.90;;;;;;4876083;29;20208;-68
2023/04/11 08:18:15;;;;;;;0.93;0.93;;;10.50;99.90;;;;;;4877514;29;20219;-68
2023/04/11 08:20:41;;;;;;;0.60;0.60;;;10.50;99.90;;;;;;4889286;29;20251;-68
2023/04/11 08:23:09;;;;;;;3.30;0.85;;;10.50;99.90;;;;;;4887211;29;20731;-69
2023/04/11 08:25:36;;;;;;;0.60;0.60;;;10.60;99.90;;;;;;4882188;29;20212;-69
2023/04/11 08:28:04;;;;;;;0.93;0.93;;;10.70;99.90;;;;;;4889330;29;20207;-68
2023/04/11 08:30:31;;;;;;;1.13;1.13;;;10.60;99.90;;;;;;4887208;29;20250;-68
2023/04/11 08:32:58;;;;;;;0.80;0.80;;;10.50;99.90;;;;;;4876649;29;20567;-68
2023/04/11 08:35:26;;;;;;;2.35;0.88;;;10.50;99.90;;;;;;4878193;29;20298;-69
2023/04/11 08:37:53;;;;;;;0.65;0.65;;;10.40;99.90;;;;;;4889884;29;20203;-69
2023/04/11 08:40:20;;;;;;;1.20;1.10;;;10.30;99.90;;;;;;4880163;29;20669;-68
2023/04/11 08:42:46;;;;;;;1.30;1.15;;;10.20;99.90;;;;;;4879182;29;20906;-68
2023/04/11 08:45:13;;;;;;;0.93;0.93;;;10.10;99.90;;;;;;4886545;29;20747;-68
2023/04/11 08:47:40;;;;;;;2.35;1.17;;;10.10;99.90;;;;;;4880460;29;20215;-68
2023/04/11 08:50:09;;;;;;;2.10;2.00;;;10.20;99.90;;;;;;4883866;29;20200;-69
2023/04/11 08:52:39;;;;;;;7.30;1.08;;;10.40;99.90;;;;;;4882656;29;20252;-69
2023/04/11 08:55:06;;;;;;;1.17;1.17;;;10.50;99.90;;;;;;4883357;29;20196;-69
2023/04/11 08:57:33;;;;;;;5.93;2.30;;;10.40;99.90;;;;;;4887200;29;20235;-68
2023/04/11 09:00:09;;;;;;;0.68;0.63;;;10.30;99.90;;;;;;4884216;29;20203;-69
2023/04/11 09:02:53;;;;;;;1.98;1.88;;;10.10;99.90;;;;;;4878493;29;20577;-69
2023/04/11 09:05:25;;;;;;;0.80;0.80;;;10.10;99.90;;;;;;4873247;29;20673;-68
2023/04/11 09:07:53;;;;;;;3.03;1.83;;;10.20;99.90;;;;;;4887993;29;20673;-68
2023/04/11 09:10:21;;;;;;;2.00;1.83;;;10.50;99.90;;;;;;4865392;29;20212;-69
2023/04/11 09:12:48;;;;;;;4.30;1.40;;;10.60;99.90;;;;;;4879596;29;20235;-69
2023/04/11 09:15:20;;;;;;;2.22;2.13;;;10.70;99.90;;;;;;4877542;29;20227;-66
2023/04/11 09:17:47;;;;;;;1.20;1.10;;;10.90;99.90;;;;;;4876554;29;20235;-68
2023/04/11 09:20:18;;;;;;;2.25;2.15;;;11.00;99.90;;;;;;4877968;29;20246;-68
2023/04/11 09:22:45;;;;;;;6.10;1.63;;;11.00;99.90;;;;;;4871551;29;20240;-69
2023/04/11 09:25:13;;;;;;;1.60;1.50;;;11.10;99.90;;;;;;4875340;29;20219;-68
2023/04/11 09:27:39;;;;;;;1.25;1.23;;;11.10;99.90;;;;;;4877785;29;20211;-68
2023/04/11 09:30:18;;;;;;;1.30;1.20;;;11.20;99.90;;;;;;4864243;29;20907;-67
2023/04/11 09:32:47;;;;;;;2.45;2.25;;;11.20;99.90;;;;;;4879973;29;20619;-67
2023/04/11 09:35:15;;;;;;;1.83;1.73;;;11.10;99.90;;;;;;4881953;29;20212;-67
2023/04/11 09:37:44;;;;;;;2.15;1.67;;;11.00;99.90;;;;;;4878940;29;20672;-67
2023/04/11 09:40:13;;;;;;;1.00;1.00;;;11.00;99.90;;;;;;4877549;29;20242;-69
2023/04/11 09:42:41;;;;;;;1.85;1.73;;;11.00;99.90;;;;;;4880845;29;20208;-68
2023/04/11 09:45:17;;;;;;;0.75;0.75;;;10.90;99.90;;;;;;4875770;29;20685;-68
2023/04/11 09:47:44;;;;;;;1.48;1.20;;;10.70;99.90;;;;;;4876278;29;20306;-68
2023/04/11 09:50:11;;;;;;;1.67;1.67;;;10.60;99.90;;;;;;4876134;29;20295;-69
2023/04/11 09:52:41;;;;;;;0.40;0.40;;;10.50;99.90;;;;;;4879114;29;20215;-69
2023/04/11 09:55:09;;;;;;;0.82;0.82;;;10.20;99.90;;;;;;4876863;29;20222;-69
2023/04/11 09:57:40;;;;;;;1.83;1.83;;;10.00;99.90;;;;;;4879610;29;20267;-69
2023/04/11 10:00:14;;;;;;;0.50;0.50;;;9.70;99.90;;;;;;4882674;29;20232;-69
2023/04/11 10:02:40;;;;;;;2.20;1.55;;;9.50;99.90;;;;;;4879154;29;20216;-68
2023/04/11 10:05:09;;;;;;;0.28;0.28;;;9.20;99.90;;;;;;4882951;29;20224;-69
2023/04/11 10:07:45;;;;;;;1.30;1.20;;;9.00;99.90;;;;;;4876787;29;20315;-69
2023/04/11 10:10:19;;;;;;;0.22;0.22;;;9.00;99.90;;;;;;4881715;29;20199;-69
2023/04/11 10:12:48;;;;;;;0.52;0.52;;;8.90;99.90;;;;;;4887823;29;20582;-68
2023/04/11 10:15:15;;;;;;;0.20;0.20;;;8.90;99.90;;;;;;4889101;29;20260;-69
2023/04/11 10:17:43;;;;;;;0.60;0.60;;;8.90;99.90;;;;;;4876667;29;20212;-68
2023/04/11 10:20:44;;;;;;;0.28;0.28;;;8.70;99.90;;;;;;4880423;29;20211;-69
2023/04/11 10:23:12;;;;;;;0.52;0.52;;;8.60;99.90;;;;;;4858139;29;20670;-71
2023/04/11 10:25:53;;;;;;;0.40;0.40;;;8.40;99.90;;;;;;4876921;29;20280;-69
2023/04/11 10:28:33;;;;;;;0.35;0.35;;;8.20;99.90;;;;;;4873332;29;20208;-69
2023/04/11 10:31:03;;;;;;;0.22;0.22;;;8.20;99.90;;;;;;4874425;29;20227;-70
2023/04/11 10:33:30;;;;;;;0.55;0.55;;;8.10;99.90;;;;;;4872210;29;20379;-68
2023/04/11 10:36:00;;;;;;;0.25;0.25;;;8.10;99.90;;;;;;4880575;29;20632;-70
2023/04/11 10:38:47;;;;;;;0.60;0.20;;;8.00;99.90;;;;;;4883382;29;20335;-69
2023/04/11 10:41:31;;;;;;;0.55;0.55;;;8.00;99.90;;;;;;4875798;29;20231;-70
2023/04/11 10:44:19;;;;;;;0.60;0.32;;;7.90;99.90;;;;;;4875255;29;20238;-70
2023/04/11 10:46:47;;;;;;;0.20;0.20;;;7.90;99.90;;;;;;4876804;29;20208;-71
2023/04/11 10:49:32;;;;;;;0.30;0.30;;;7.90;99.90;;;;;;4880448;29;20204;-69
2023/04/11 10:52:19;;;;;;;0.30;0.30;;;7.90;99.90;;;;;;4857953;29;20315;-69
2023/04/11 10:54:46;;;;;;;0.30;0.30;;;8.00;99.90;;;;;;4877472;29;20646;-69
2023/04/11 10:57:13;;;;;;;0.40;0.40;;;8.00;99.90;;;;;;4876534;29;20219;-71
2023/04/11 11:00:00;;;;;;;0.30;0.30;;;8.00;99.90;;;;;;4876201;29;20211;-68
2023/04/11 11:02:38;;;;;;;0.32;0.32;;;8.10;99.90;;;;;;4872407;29;20238;-69
2023/04/11 11:05:19;;;;;;;1.17;0.35;;;8.10;99.90;;;;;;4881830;29;20228;-69
2023/04/11 11:07:47;;;;;;;1.33;0.40;;;8.10;99.90;;;;;;4875205;29;20223;-69
2023/04/11 11:10:14;;;;;;;0.30;0.30;;;8.10;99.90;;;;;;4875296;29;20208;-68
2023/04/11 11:12:52;;;;;;;1.25;1.25;;;8.20;99.90;;;;;;4866150;29;20317;-69
2023/04/11 11:15:21;;;;;;;0.70;0.70;;;8.20;99.90;;;;;;4873430;29;20256;-65
2023/04/11 11:17:48;;;;;;;0.73;0.73;;;8.20;99.90;;;;;;4871640;29;20212;-69
2023/04/11 11:20:18;;;;;;;0.70;0.70;;;8.30;99.90;;;;;;4873283;29;20601;-69
2023/04/11 11:23:02;;;;;;;1.80;1.70;;;8.30;99.90;;;;;;4874594;29;20248;-69
2023/04/11 11:25:29;;;;;;;0.35;0.35;;;8.40;99.90;;;;;;4881937;29;20249;-70
2023/04/11 11:28:03;;;;;;;0.60;0.60;;;8.50;99.90;;;;;;4876465;29;20223;-70
2023/04/11 11:30:32;;;;;;;1.05;0.60;;;8.70;99.90;;;;;;4878108;29;20211;-70
2023/04/11 11:32:59;;;;;;;0.40;0.40;;;8.80;99.90;;;;;;4877162;29;20207;-69
2023/04/11 11:35:25;;;;;;;1.10;1.10;;;9.00;99.90;;;;;;4877399;29;20204;-69
2023/04/11 11:37:53;;;;;;;11.55;0.68;;;9.20;99.90;;;;;;4879183;29;20358;-68
2023/04/11 11:40:24;;;;;;;1.50;1.40;;;9.30;99.90;;;;;;4878079;29;20216;-69
2023/04/11 11:42:52;;;;;;;2.20;1.60;;;9.50;99.90;;;;;;4874397;29;20211;-69
2023/04/11 11:45:20;;;;;;;10.30;1.48;;;9.70;99.90;;;;;;4878060;29;20228;-70
2023/04/11 11:47:50;;;;;;;1.55;1.40;;;9.90;99.90;;;;;;4878777;29;20826;-69
2023/04/11 11:50:28;;;;;;;2.40;2.25;;;10.20;99.90;;;;;;4880547;29;20295;-68
2023/04/11 11:52:55;;;;;;;1.80;0.98;;;10.30;99.90;;;;;;4876359;29;20291;-68
2023/04/11 11:55:33;;;;;;;0.68;0.68;;;10.40;99.90;;;;;;4883720;29;20291;-68
2023/04/11 11:58:02;;;;;;;0.80;0.80;;;10.50;99.90;;;;;;4876930;29;20291;-68
2023/04/11 12:00:30;;;;;;;4.63;1.05;;;10.70;99.90;;;;;;4877378;29;20475;-68
2023/04/11 12:02:59;;;;;;;2.75;2.60;;;10.80;99.90;;;;;;4890807;29;20218;-68
2023/04/11 12:05:28;;;;;;;1.10;0.85;;;10.90;99.90;;;;;;4886382;29;20327;-68
2023/04/11 12:07:58;;;;;;;1.48;1.38;;;10.80;99.90;;;;;;4878873;29;20224;-69
2023/04/11 12:10:28;;;;;;;2.15;1.20;;;10.80;99.90;;;;;;4886463;29;20208;-69
2023/04/11 12:12:55;;;;;;;0.68;0.68;;;10.50;99.90;;;;;;4883777;29;20204;-69
2023/04/11 12:15:23;;;;;;;1.55;1.10;;;10.20;99.90;;;;;;4893720;29;20241;-69
2023/04/11 12:17:51;;;;;;;0.60;0.57;;;9.80;99.90;;;;;;4884462;29;20625;-69
2023/04/11 12:20:22;;;;;;;0.45;0.45;;;9.30;99.90;;;;;;4877646;29;20299;-69
2023/04/11 12:22:49;;;;;;;0.47;0.47;;;9.00;99.90;;;;;;4878729;29;20204;-69
2023/04/11 12:25:16;;;;;;;0.25;0.25;;;8.80;99.90;;;;;;4883856;29;20235;-69
2023/04/11 12:27:44;;;;;;;0.60;0.52;;;8.70;99.90;;;;;;4889054;29;20203;-69
2023/04/11 12:30:13;;;;;;;0.22;0.22;;;8.60;99.90;;;;;;4888711;29;20696;-69
2023/04/11 12:32:40;;;;;;;0.82;0.82;;;8.50;99.90;;;;;;4895460;29;20207;-69
2023/04/11 12:35:08;;;;;;;0.32;0.32;;;8.50;99.90;;;;;;4897216;29;20218;-67
2023/04/11 12:37:37;;;;;;;0.60;0.40;;;8.50;99.90;;;;;;4897051;29;20207;-68
2023/04/11 12:40:09;;;;;;;0.77;0.77;;;8.70;99.90;;;;;;4878014;29;20207;-68
2023/04/11 12:42:37;;;;;;;1.70;0.68;;;8.80;99.90;;;;;;4878055;29;20224;-68
2023/04/11 12:45:05;;;;;;;1.95;0.55;;;8.90;99.90;;;;;;4878027;29;20228;-69
2023/04/11 12:47:32;;;;;;;0.60;0.60;;;9.10;99.90;;;;;;4878030;29;20215;-69
2023/04/11 12:49:59;;;;;;;0.60;0.60;;;9.20;99.90;;;;;;4885651;29;20212;-67
2023/04/11 12:52:26;;;;;;;2.28;1.05;;;9.30;99.90;;;;;;4886350;29;20259;-68
2023/04/11 12:54:54;;;;;;;0.63;0.63;;;9.50;99.90;;;;;;4875734;29;20204;-68
2023/04/11 12:57:21;;;;;;;0.70;0.70;;;9.80;99.90;;;;;;4885466;29;20218;-69
2023/04/11 12:59:47;;;;;;;1.65;0.70;;;10.00;99.90;;;;;;4894906;29;20314;-67
2023/04/11 13:02:15;;;;;;;0.70;0.70;;;10.30;99.90;;;;;;4877188;29;20224;-68
2023/04/11 13:04:41;;;;;;;1.30;1.20;;;10.40;99.90;;;;;;4886072;29;20272;-69
2023/04/11 13:07:08;;;;;;;0.75;0.75;;;10.50;99.90;;;;;;4882512;29;20212;-69
2023/04/11 13:09:36;;;;;;;1.40;1.33;;;10.60;99.90;;;;;;4885949;29;20275;-68
2023/04/11 13:12:04;;;;;;;0.70;0.70;;;10.70;99.90;;;;;;4877890;29;20235;-68
2023/04/11 13:14:31;;;;;;;2.03;1.92;;;10.80;99.90;;;;;;4884889;29;20208;-68
2023/04/11 13:16:58;;;;;;;1.17;1.13;;;10.90;99.90;;;;;;4878318;29;20234;-68
2023/04/11 13:19:25;;;;;;;4.50;2.00;;;10.90;99.90;;;;;;4877711;29;20674;-68
2023/04/11 13:21:51;;;;;;;4.43;1.02;;;10.90;99.90;;;;;;4880710;29;20319;-68
2023/04/11 13:24:18;;;;;;;1.40;1.38;;;10.80;99.90;;;;;;4878378;29;20738;-68
2023/04/11 13:26:45;;;;;;;1.48;1.23;;;10.80;99.90;;;;;;4895250;29;20211;-68
2023/04/11 13:29:13;;;;;;;1.50;0.85;;;10.70;99.90;;;;;;4877577;29;20212;-68
2023/04/11 13:31:39;;;;;;;4.00;0.75;;;10.70;99.90;;;;;;4888086;29;20226;-69
2023/04/11 13:34:06;;;;;;;0.98;0.75;;;10.60;99.90;;;;;;4887268;29;20211;-68
2023/04/11 13:36:33;;;;;;;5.50;1.85;;;10.60;99.90;;;;;;4884283;29;20211;-69
2023/04/11 13:38:59;;;;;;;1.27;1.17;;;10.50;99.90;;;;;;4877485;29;20212;-67
2023/04/11 13:41:26;;;;;;;2.85;0.80;;;10.40;99.90;;;;;;4877592;29;20235;-68
2023/04/11 13:43:53;;;;;;;0.45;0.45;;;10.30;99.90;;;;;;4883132;29;20231;-70
2023/04/11 13:46:22;;;;;;;0.75;0.40;;;10.20;99.90;;;;;;4892139;29;20593;-68
2023/04/11 13:48:48;;;;;;;0.43;0.40;;;10.10;99.90;;;;;;4891868;29;20207;-68
2023/04/11 13:51:15;;;;;;;0.20;0.20;;;10.00;99.90;;;;;;4888110;29;20231;-68
2023/04/11 13:53:42;;;;;;;0.43;0.43;;;9.90;99.90;;;;;;4885573;29;20232;-68
2023/04/11 13:56:09;;;;;;;1.00;0.80;;;9.90;99.90;;;;;;4882916;29;20299;-68
2023/04/11 13:58:37;;;;;;;2.50;0.45;;;9.80;99.90;;;;;;4876463;29;20306;-67
2023/04/11 14:01:03;;;;;;;0.30;0.30;;;9.80;99.90;;;;;;4875855;29;20228;-68
2023/04/11 14:03:32;;;;;;;0.82;0.82;;;9.80;99.90;;;;;;4877850;29;20215;-69
2023/04/11 14:05:59;;;;;;;0.30;0.30;;;9.80;99.90;;;;;;4881078;29;20369;-68
2023/04/11 14:08:28;;;;;;;0.85;0.85;;;9.80;99.90;;;;;;4896187;29;20217;-69
2023/04/11 14:10:55;;;;;;;1.67;0.50;;;9.80;99.90;;;;;;4896397;29;20230;-68
2023/04/11 14:13:21;;;;;;;0.90;0.85;;;9.80;99.90;;;;;;4885590;29;20204;-68
2023/04/11 14:15:49;;;;;;;0.98;0.88;;;9.90;99.90;;;;;;4887337;29;20302;-68
2023/04/11 14:18:15;;;;;;;0.77;0.77;;;9.80;99.90;;;;;;4888546;29;20211;-68
2023/04/11 14:20:44;;;;;;;0.85;0.85;;;9.60;99.90;;;;;;4888061;29;20242;-69
2023/04/11 14:23:12;;;;;;;1.85;0.93;;;9.50;99.90;;;;;;4889230;29;20199;-69
2023/04/11 14:25:39;;;;;;;1.15;1.15;;;9.40;99.90;;;;;;4878231;29;20318;-69
2023/04/11 14:28:06;;;;;;;6.32;0.95;;;9.50;99.90;;;;;;4885361;29;20672;-69
2023/04/11 14:30:33;;;;;;;0.50;0.50;;;9.80;99.90;;;;;;4875094;29;20215;-68
2023/04/11 14:32:59;;;;;;;1.70;0.75;;;9.80;99.90;;;;;;4875030;29;20211;-68
2023/04/11 14:35:26;;;;;;;1.05;1.05;;;9.90;99.90;;;;;;4881869;29;20195;-68
2023/04/11 14:37:55;;;;;;;0.60;0.60;;;10.00;99.90;;;;;;4884182;29;20234;-68
2023/04/11 14:40:22;;;;;;;0.68;0.68;;;10.10;99.90;;;;;;4880650;29;20218;-68
2023/04/11 14:42:49;;;;;;;1.50;1.35;;;10.20;99.90;;;;;;4882370;29;21201;-68
2023/04/11 14:45:16;;;;;;;0.90;0.90;;;10.20;99.90;;;;;;4881573;29;20230;-68
2023/04/11 14:47:42;;;;;;;1.10;0.80;;;10.20;99.90;;;;;;4884116;29;20211;-69
2023/04/11 14:50:10;;;;;;;1.02;1.02;;;10.10;99.90;;;;;;4876295;29;20211;-68
2023/04/11 14:52:37;;;;;;;0.88;0.88;;;10.10;99.90;;;;;;4876104;29;20223;-68
2023/04/11 14:55:07;;;;;;;2.97;0.30;;;9.90;99.90;;;;;;4883122;29;20203;-68
2023/04/11 14:57:47;;;;;;;0.43;0.43;;;9.60;99.90;;;;;;4880185;29;20255;-68
2023/04/11 15:00:19;;;;;;;0.30;0.30;;;8.90;99.90;;;;;;4880162;29;20299;-68
2023/04/11 15:02:47;;;;;;;1.20;0.52;;;8.40;99.90;;;;;;4871895;29;20212;-68
2023/04/11 15:05:16;;;;;;;1.33;1.27;;;8.10;99.90;;;;;;4883491;29;20306;-68
2023/04/11 15:07:43;;;;;;;0.43;0.43;;;8.00;99.90;;;;;;4883723;29;20209;-68
2023/04/11 15:10:12;;;;;;;1.10;1.10;;;7.90;99.90;;;;;;4882578;29;20216;-68
2023/04/11 15:12:38;;;;;;;2.05;1.30;;;7.80;99.90;;;;;;4879954;29;20590;-68
2023/04/11 15:15:07;;;;;;;0.85;0.30;;;7.80;99.90;;;;;;4885255;29;20670;-68
2023/04/11 15:17:39;;;;;;;0.47;0.47;;;7.80;99.90;;;;;;4883326;29;20571;-68
2023/04/11 15:20:08;;;;;;;2.78;0.85;;;7.80;99.90;;;;;;4878344;29;20576;-68
2023/04/11 15:22:36;;;;;;;0.40;0.40;;;7.90;99.90;;;;;;4877664;29;20227;-69
2023/04/11 15:25:03;;;;;;;0.52;0.52;;;8.00;99.90;;;;;;4878695;29;20228;-68
2023/04/11 15:27:31;;;;;;;0.22;0.22;;;8.00;99.90;;;;;;4877967;29;20568;-69
2023/04/11 15:30:01;;;;;;;1.63;1.52;;;8.20;99.90;;;;;;4891670;29;20233;-70
2023/04/11 15:32:28;;;;;;;1.20;1.13;;;8.40;99.90;;;;;;4880468;29;20784;-69
2023/04/11 15:34:55;;;;;;;1.08;0.98;;;8.50;99.90;;;;;;4878653;29;20215;-69
2023/04/11 15:37:22;;;;;;;0.50;0.50;;;8.50;99.90;;;;;;4878896;29;20216;-68
2023/04/11 15:39:49;;;;;;;0.10;0.10;;;8.60;99.90;;;;;;4888564;29;20527;-69
2023/04/11 15:42:16;;;;;;;0.60;0.60;;;8.60;99.90;;;;;;4887664;29;20734;-68
2023/04/11 15:44:44;;;;;;;0.60;0.50;;;8.60;99.90;;;;;;4879249;29;20219;-68
2023/04/11 15:47:11;;;;;;;0.55;0.55;;;8.60;99.90;;;;;;4874943;29;20757;-69
2023/04/11 15:49:38;;;;;;;0.70;0.70;;;8.50;99.90;;;;;;4870622;29;20204;-68
2023/04/11 15:52:05;;;;;;;0.60;0.60;;;8.40;99.90;;;;;;4877349;29;20319;-69
2023/04/11 15:54:32;;;;;;;0.60;0.60;;;8.40;99.90;;;;;;4877438;29;20786;-69
2023/04/11 15:57:00;;;;;;;0.60;0.60;;;8.40;99.90;;;;;;4878995;29;20534;-69
2023/04/11 15:59:28;;;;;;;3.88;2.10;;;8.40;99.90;;;;;;4881711;29;20204;-68
2023/04/11 16:01:56;;;;;;;1.00;1.00;;;8.40;99.90;;;;;;4874381;29;20589;-68
2023/04/11 16:04:23;;;;;;;0.70;0.70;;;8.60;99.90;;;;;;4877041;29;20212;-68
2023/04/11 16:06:49;;;;;;;6.22;2.05;;;8.70;99.90;;;;;;4878239;29;20719;-68
2023/04/11 16:09:16;;;;;;;1.33;1.02;;;8.80;99.90;;;;;;4879410;29;20204;-68
2023/04/11 16:11:43;;;;;;;1.02;1.02;;;8.90;99.90;;;;;;4885025;29;20239;-68
2023/04/11 16:14:10;;;;;;;1.17;1.08;;;8.90;99.90;;;;;;4877391;29;20207;-68
2023/04/11 16:16:37;;;;;;;0.73;0.70;;;8.90;99.90;;;;;;4877335;29;20252;-68
2023/04/11 16:19:05;;;;;;;4.32;0.85;;;9.00;99.90;;;;;;4885586;29;20600;-68
2023/04/11 16:21:32;;;;;;;2.20;1.35;;;8.90;99.90;;;;;;4882146;29;20270;-68
2023/04/11 16:23:59;;;;;;;0.52;0.52;;;8.90;99.90;;;;;;4880897;29;20211;-68
2023/04/11 16:26:25;;;;;;;1.05;0.88;;;8.80;99.90;;;;;;4884240;29;20251;-69
2023/04/11 16:28:52;;;;;;;0.50;0.50;;;8.80;99.90;;;;;;4886007;29;20814;-68
2023/04/11 16:31:23;;;;;;;0.75;0.75;;;8.80;99.90;;;;;;4875899;29;20235;-69
2023/04/11 16:33:50;;;;;;;0.45;0.45;;;8.70;99.90;;;;;;4874256;29;20654;-69
2023/04/11 16:36:18;;;;;;;0.82;0.82;;;8.70;99.90;;;;;;4878423;29;20280;-72
2023/04/11 16:38:46;;;;;;;0.90;0.90;;;8.70;99.90;;;;;;4881657;29;20276;-69
2023/04/11 16:41:13;;;;;;;1.20;1.20;;;8.80;99.90;;;;;;4886915;29;20223;-68
2023/04/11 16:43:40;;;;;;;1.73;1.67;;;8.80;99.90;;;;;;4884528;29;22322;-69
2023/04/11 16:46:11;;;;;;;0.50;0.50;;;8.90;99.90;;;;;;4885000;29;20234;-69
2023/04/11 16:48:37;;;;;;;1.02;1.02;;;8.80;99.90;;;;;;4883701;29;20208;-69
2023/04/11 16:51:05;;;;;;;0.90;0.90;;;8.70;99.90;;;;;;4874089;29;20224;-69
2023/04/11 16:53:33;;;;;;;0.95;0.95;;;8.80;99.90;;;;;;4876141;29;20208;-68
2023/04/11 16:56:00;;;;;;;1.00;1.00;;;8.60;99.90;;;;;;4866848;29;20231;-69
2023/04/11 16:58:27;;;;;;;1.77;1.67;;;8.60;99.90;;;;;;4881162;29;20211;-70
2023/04/11 17:00:54;;;;;;;3.35;3.15;;;8.50;99.90;;;;;;4874680;29;20259;-69